createdAt,value
2023-04-20T05:03:19.158Z,23.25
2023-04-20T05:04:20.073Z,23.24
2023-04-20T05:05:19.024Z,23.25
2023-04-20T05:06:20.004Z,23.26
2023-04-20T05:07:20.027Z,23.24
2023-04-20T05:08:18.996Z,23.26
2023-04-20T05:09:19.448Z,23.31
2023-04-20T05:10:18.997Z,23.28
2023-04-20T05:11:18.980Z,23.29
2023-04-20T05:12:19.986Z,23.29
2023-04-20T05:13:19.975Z,23.31
2023-04-20T05:14:18.950Z,23.33
2023-04-20T05:15:19.963Z,23.28
2023-04-20T05:16:19.013Z,23.29
2023-04-20T05:17:19.970Z,23.24
2023-04-20T05:18:18.936Z,23.11
2023-04-20T05:19:19.225Z,23.05
2023-04-20T05:20:18.912Z,22.89
2023-04-20T05:21:19.909Z,22.91
2023-04-20T05:22:19.901Z,22.87
2023-04-20T05:23:19.910Z,22.74
2023-04-20T05:24:19.901Z,22.97
2023-04-20T05:25:19.947Z,23.05
2023-04-20T05:26:18.960Z,23.17
2023-04-20T05:27:20.011Z,23.00
2023-04-20T05:28:20.051Z,22.98
2023-04-20T05:29:20.093Z,22.77
2023-04-20T05:30:21.871Z,22.59
2023-04-20T05:31:20.187Z,22.64
2023-04-20T05:32:19.120Z,22.70
2023-04-20T05:33:19.087Z,22.77
2023-04-20T05:34:20.084Z,22.83
2023-04-20T05:35:20.112Z,22.94
2023-04-20T05:36:20.375Z,22.97
2023-04-20T05:37:20.098Z,23.00
2023-04-20T05:38:19.071Z,23.03
2023-04-20T05:39:19.471Z,22.87
2023-04-20T05:40:20.055Z,22.80
2023-04-20T05:41:20.081Z,22.86
2023-04-20T05:42:20.049Z,22.90
2023-04-20T05:43:20.075Z,22.91
2023-04-20T05:44:20.076Z,22.98
2023-04-20T05:45:20.032Z,23.03
2023-04-20T05:46:20.045Z,23.03
2023-04-20T05:47:20.027Z,23.05
2023-04-20T05:48:20.021Z,23.07
2023-04-20T05:49:20.111Z,23.03
2023-04-20T05:50:19.984Z,23.10
2023-04-20T05:51:19.019Z,22.89
2023-04-20T05:52:18.989Z,23.08
2023-04-20T05:53:19.969Z,23.24
2023-04-20T05:54:19.964Z,23.32
2023-04-20T05:55:21.400Z,23.39
2023-04-20T05:56:19.955Z,23.29
2023-04-20T05:57:18.951Z,23.14
2023-04-20T05:58:19.963Z,23.15
2023-04-20T05:59:20.000Z,23.10
2023-04-20T06:00:19.946Z,23.03
2023-04-20T06:01:19.878Z,22.87
2023-04-20T06:02:19.511Z,22.70
2023-04-20T06:03:19.094Z,22.77
2023-04-20T06:04:20.298Z,22.89
2023-04-20T06:05:18.936Z,22.94
2023-04-20T06:06:18.906Z,23.04
2023-04-20T06:07:19.896Z,23.08
2023-04-20T06:08:19.881Z,23.18
2023-04-20T06:09:19.049Z,23.22
2023-04-20T06:10:19.850Z,23.28
2023-04-20T06:11:18.892Z,23.33
2023-04-20T06:12:19.864Z,23.38
2023-04-20T06:13:20.877Z,23.38
2023-04-20T06:14:19.828Z,23.41
2023-04-20T06:15:18.829Z,23.42
2023-04-20T06:16:19.868Z,23.39
2023-04-20T06:17:19.816Z,23.35
2023-04-20T06:18:18.932Z,23.37
2023-04-20T06:19:20.629Z,23.38
2023-04-20T06:20:19.812Z,23.38
2023-04-20T06:21:19.830Z,23.37
2023-04-20T06:22:19.796Z,23.35
2023-04-20T06:23:19.847Z,23.41
2023-04-20T06:24:19.860Z,23.46
2023-04-20T06:25:19.895Z,23.49
2023-04-20T06:26:19.958Z,23.46
2023-04-20T06:27:19.005Z,23.52
2023-04-20T06:28:19.028Z,23.60
2023-04-20T06:29:19.290Z,23.58
2023-04-20T06:30:19.048Z,23.51
2023-04-20T06:31:20.162Z,23.52
2023-04-20T06:32:19.182Z,23.49
2023-04-20T06:33:20.138Z,23.53
2023-04-20T06:34:20.170Z,23.53
2023-04-20T06:35:20.211Z,23.53
2023-04-20T06:36:19.272Z,23.56
2023-04-20T06:37:20.290Z,23.53
2023-04-20T06:38:20.309Z,23.51
2023-04-20T06:39:20.952Z,23.52
2023-04-20T06:40:20.403Z,23.52
2023-04-20T06:41:19.422Z,23.53
2023-04-20T06:42:20.436Z,23.56
2023-04-20T06:43:20.455Z,23.56
2023-04-20T06:44:19.484Z,23.58
2023-04-20T06:45:20.512Z,23.58
2023-04-20T06:46:20.568Z,23.58
2023-04-20T06:47:20.666Z,23.56
2023-04-20T06:48:31.506Z,23.49
2023-04-20T06:49:20.633Z,23.37
2023-04-20T06:50:19.624Z,23.49
2023-04-20T06:51:19.922Z,23.56
2023-04-20T06:52:20.604Z,23.51
2023-04-20T06:53:20.609Z,23.48
2023-04-20T06:54:20.587Z,23.48
2023-04-20T06:55:19.677Z,23.42
2023-04-20T06:56:20.897Z,23.35
2023-04-20T06:57:20.569Z,23.31
2023-04-20T06:58:19.568Z,23.25
2023-04-20T06:59:19.718Z,23.24
2023-04-20T07:00:20.555Z,23.22
2023-04-20T07:01:20.556Z,23.19
2023-04-20T07:02:19.693Z,23.14
2023-04-20T07:03:20.710Z,23.14
2023-04-20T07:04:20.541Z,23.13
2023-04-20T07:05:20.530Z,23.13
2023-04-20T07:06:20.525Z,23.05
2023-04-20T07:07:19.683Z,23.04
2023-04-20T07:08:20.507Z,23.05
2023-04-20T07:09:19.749Z,23.03
2023-04-20T07:10:50.716Z,23.04
2023-04-20T07:11:20.497Z,23.01
2023-04-20T07:12:20.482Z,23.03
2023-04-20T07:13:20.466Z,23.03
2023-04-20T07:14:20.476Z,23.01
2023-04-20T07:15:20.455Z,23.00
2023-04-20T07:16:20.490Z,23.03
2023-04-20T07:17:20.449Z,23.03
2023-04-20T07:18:19.458Z,23.00
2023-04-20T07:19:20.408Z,23.04
2023-04-20T07:20:19.415Z,22.98
2023-04-20T07:21:20.417Z,22.98
2023-04-20T07:22:19.402Z,22.97
2023-04-20T07:23:20.398Z,23.00
2023-04-20T07:24:20.383Z,23.00
2023-04-20T07:25:20.395Z,22.98
2023-04-20T07:26:20.409Z,23.00
2023-04-20T07:27:20.356Z,23.01
2023-04-20T07:28:19.350Z,23.01
2023-04-20T07:29:19.672Z,23.01
2023-04-20T07:30:20.349Z,22.98
2023-04-20T07:31:20.374Z,23.01
2023-04-20T07:32:19.476Z,22.95
2023-04-20T07:33:20.328Z,22.98
2023-04-20T07:34:20.506Z,23.03
2023-04-20T07:35:20.303Z,23.03
2023-04-20T07:36:20.344Z,23.03
2023-04-20T07:37:20.319Z,23.04
2023-04-20T07:38:20.307Z,23.07
2023-04-20T07:39:19.538Z,23.01
2023-04-20T07:40:19.302Z,23.07
2023-04-20T07:41:19.299Z,23.07
2023-04-20T07:42:20.359Z,23.10
2023-04-20T07:43:19.276Z,23.08
2023-04-20T07:44:19.253Z,23.11
2023-04-20T07:45:19.245Z,23.11
2023-04-20T07:46:20.429Z,23.14
2023-04-20T07:47:19.257Z,23.08
2023-04-20T07:48:20.228Z,23.19
2023-04-20T07:49:20.551Z,23.26
2023-04-20T07:50:19.220Z,23.37
2023-04-20T07:51:19.233Z,23.53
2023-04-20T07:52:19.436Z,23.60
2023-04-20T07:53:19.208Z,23.80
2023-04-20T07:54:19.228Z,23.95
2023-04-20T07:55:20.210Z,24.07
2023-04-20T07:56:20.184Z,24.17
2023-04-20T07:57:19.183Z,24.28
2023-04-20T07:58:20.321Z,24.41
2023-04-20T07:59:19.368Z,24.48
2023-04-20T08:00:20.188Z,24.61
2023-04-20T08:01:20.165Z,24.68
2023-04-20T08:02:20.266Z,24.87
2023-04-20T08:03:20.346Z,24.92
2023-04-20T08:04:19.345Z,24.99
2023-04-20T08:05:20.307Z,25.05
2023-04-20T08:06:19.263Z,25.02
2023-04-20T08:07:20.294Z,25.02
2023-04-20T08:08:20.334Z,25.11
2023-04-20T08:09:20.364Z,25.14
2023-04-20T08:10:20.428Z,25.19
2023-04-20T08:11:20.448Z,25.27
2023-04-20T08:12:20.479Z,25.23
2023-04-20T08:13:20.528Z,25.21
2023-04-20T08:14:21.359Z,25.26
2023-04-20T08:15:20.608Z,25.30
2023-04-20T08:16:20.989Z,25.36
2023-04-20T08:17:20.887Z,25.40
2023-04-20T08:18:21.279Z,25.40
2023-04-20T08:19:20.757Z,25.41
2023-04-20T08:20:20.727Z,25.42
2023-04-20T08:21:22.346Z,25.34
2023-04-20T08:22:20.749Z,25.30
2023-04-20T08:23:20.775Z,25.28
2023-04-20T08:24:19.999Z,25.37
2023-04-20T08:25:20.732Z,25.37
2023-04-20T08:26:19.834Z,25.38
2023-04-20T08:27:19.737Z,25.37
2023-04-20T08:28:32.912Z,25.42
2023-04-20T08:29:20.870Z,25.41
2023-04-20T08:30:20.811Z,25.51
2023-04-20T08:31:20.714Z,25.55
2023-04-20T08:32:19.693Z,25.57
2023-04-20T08:33:20.671Z,25.61
2023-04-20T08:34:20.704Z,25.61
2023-04-20T08:35:19.817Z,25.62
2023-04-20T08:36:20.678Z,25.64
2023-04-20T08:37:20.649Z,25.65
2023-04-20T08:38:23.794Z,25.67
2023-04-20T08:39:20.629Z,25.72
2023-04-20T08:40:20.643Z,25.71
2023-04-20T08:41:19.628Z,25.69
2023-04-20T08:42:19.944Z,25.71
2023-04-20T08:43:21.671Z,25.68
2023-04-20T08:44:20.614Z,25.61
2023-04-20T08:45:20.623Z,25.60
2023-04-20T08:46:20.846Z,25.54
2023-04-20T08:47:20.796Z,25.48
2023-04-20T08:48:20.717Z,25.49
2023-04-20T08:49:20.722Z,25.55
2023-04-20T08:50:20.769Z,25.54
2023-04-20T08:51:20.797Z,25.55
2023-04-20T08:52:19.842Z,25.52
2023-04-20T08:53:19.875Z,25.54
2023-04-20T08:54:20.060Z,25.52
2023-04-20T08:55:20.926Z,25.21
2023-04-20T08:56:20.920Z,25.49
2023-04-20T08:57:20.955Z,25.62
2023-04-20T08:58:19.963Z,25.76
2023-04-20T08:59:20.998Z,25.92
2023-04-20T09:00:19.993Z,26.10
2023-04-20T09:01:28.674Z,26.13
2023-04-20T09:02:21.580Z,26.23
2023-04-20T09:03:20.213Z,25.97
2023-04-20T09:04:21.485Z,25.79
2023-04-20T09:05:21.068Z,25.55
2023-04-20T09:06:22.905Z,25.84
2023-04-20T09:07:20.028Z,25.64
2023-04-20T09:08:20.972Z,25.67
2023-04-20T09:09:20.971Z,25.79
2023-04-20T09:10:20.005Z,25.57
2023-04-20T09:11:20.958Z,25.72
2023-04-20T09:12:22.668Z,25.44
2023-04-20T09:13:20.953Z,25.23
2023-04-20T09:14:20.106Z,25.36
2023-04-20T09:15:20.926Z,25.49
2023-04-20T09:16:20.988Z,24.96
2023-04-20T09:17:20.954Z,25.14
2023-04-20T09:18:20.964Z,25.09
2023-04-20T09:19:19.916Z,25.31
2023-04-20T09:20:20.910Z,25.51
2023-04-20T09:21:19.893Z,25.60
2023-04-20T09:22:19.899Z,25.72
2023-04-20T09:23:20.880Z,25.84
2023-04-20T09:24:20.880Z,25.92
2023-04-20T09:25:20.870Z,25.99
2023-04-20T09:26:20.864Z,26.07
2023-04-20T09:27:20.875Z,26.09
2023-04-20T09:28:19.850Z,26.02
2023-04-20T09:29:20.849Z,25.93
2023-04-20T09:30:20.865Z,25.92
2023-04-20T09:31:19.886Z,25.65
2023-04-20T09:32:21.127Z,25.58
2023-04-20T09:33:20.827Z,25.52
2023-04-20T09:34:20.861Z,25.48
2023-04-20T09:35:20.821Z,25.40
2023-04-20T09:36:20.815Z,25.34
2023-04-20T09:37:20.840Z,25.47
2023-04-20T09:38:21.809Z,25.24
2023-04-20T09:39:20.796Z,25.31
2023-04-20T09:40:19.862Z,25.42
2023-04-20T09:41:19.761Z,25.47
2023-04-20T09:42:19.743Z,25.60
2023-04-20T09:43:19.756Z,25.68
2023-04-20T09:44:20.762Z,25.81
2023-04-20T09:45:20.752Z,25.76
2023-04-20T09:46:20.751Z,25.93
2023-04-20T09:47:21.053Z,25.97
2023-04-20T09:48:20.730Z,25.97
2023-04-20T09:49:19.789Z,26.06
2023-04-20T09:50:29.162Z,26.12
2023-04-20T09:51:20.841Z,26.10
2023-04-20T09:52:20.984Z,26.17
2023-04-20T09:53:20.823Z,26.12
2023-04-20T09:54:20.875Z,26.22
2023-04-20T09:55:20.814Z,26.03
2023-04-20T09:56:19.775Z,25.78
2023-04-20T09:57:20.797Z,25.85
2023-04-20T09:58:20.967Z,25.86
2023-04-20T09:59:20.773Z,25.61
2023-04-20T10:00:20.834Z,25.27
2023-04-20T10:01:19.801Z,25.52
2023-04-20T10:02:19.853Z,25.54
2023-04-20T10:03:20.895Z,25.64
2023-04-20T10:04:21.118Z,25.78
2023-04-20T10:05:20.723Z,25.91
2023-04-20T10:06:20.785Z,26.07
2023-04-20T10:07:20.727Z,26.13
2023-04-20T10:08:20.736Z,26.19
2023-04-20T10:09:20.688Z,26.41
2023-04-20T10:10:19.798Z,26.48
2023-04-20T10:11:20.679Z,26.50
2023-04-20T10:12:20.683Z,26.65
2023-04-20T10:13:20.661Z,26.77
2023-04-20T10:14:20.946Z,26.84
2023-04-20T10:15:20.656Z,26.92
2023-04-20T10:16:19.688Z,26.97
2023-04-20T10:17:20.750Z,26.97
2023-04-20T10:18:20.803Z,26.95
2023-04-20T10:19:20.626Z,27.03
2023-04-20T10:20:20.710Z,27.13
2023-04-20T10:21:19.736Z,27.13
2023-04-20T10:22:20.841Z,27.21
2023-04-20T10:23:20.791Z,27.09
2023-04-20T10:24:21.085Z,27.15
2023-04-20T10:25:20.886Z,27.06
2023-04-20T10:26:20.967Z,27.17
2023-04-20T10:27:20.986Z,27.09
2023-04-20T10:28:20.978Z,27.15
2023-04-20T10:29:20.996Z,27.08
2023-04-20T10:30:21.020Z,27.13
2023-04-20T10:31:21.146Z,27.09
2023-04-20T10:32:21.111Z,27.08
2023-04-20T10:33:20.114Z,27.09
2023-04-20T10:34:21.120Z,27.09
2023-04-20T10:35:21.152Z,27.09
2023-04-20T10:36:21.142Z,27.09
2023-04-20T10:37:20.547Z,27.16
2023-04-20T10:38:20.249Z,27.09
2023-04-20T10:39:20.292Z,27.15
2023-04-20T10:40:21.268Z,27.19
2023-04-20T10:41:21.284Z,26.94
2023-04-20T10:42:20.427Z,26.99
2023-04-20T10:43:21.652Z,27.02
2023-04-20T10:44:21.405Z,27.05
2023-04-20T10:45:20.452Z,26.82
2023-04-20T10:46:21.511Z,26.92
2023-04-20T10:47:21.501Z,26.95
2023-04-20T10:48:21.452Z,26.85
2023-04-20T10:49:21.539Z,26.78
2023-04-20T10:50:21.639Z,26.91
2023-04-20T10:51:27.543Z,26.87
2023-04-20T10:52:21.508Z,27.01
2023-04-20T10:53:21.509Z,26.99
2023-04-20T10:54:20.516Z,26.46
2023-04-20T10:55:21.509Z,26.33
2023-04-20T10:56:21.498Z,26.15
2023-04-20T10:57:21.508Z,25.99
2023-04-20T10:58:21.599Z,25.72
2023-04-20T10:59:21.502Z,25.51
2023-04-20T11:00:21.454Z,25.30
2023-04-20T11:01:20.490Z,25.26
2023-04-20T11:02:21.633Z,25.11
2023-04-20T11:03:21.702Z,25.13
2023-04-20T11:04:21.597Z,25.06
2023-04-20T11:05:20.514Z,24.85
2023-04-20T11:06:20.481Z,24.66
2023-04-20T11:07:21.422Z,24.56
2023-04-20T11:08:21.558Z,24.31
2023-04-20T11:09:20.454Z,24.06
2023-04-20T11:10:21.451Z,24.07
2023-04-20T11:11:20.393Z,24.04
2023-04-20T11:12:20.393Z,24.04
2023-04-20T11:13:21.438Z,24.07
2023-04-20T11:14:21.355Z,24.07
2023-04-20T11:15:21.353Z,24.16
2023-04-20T11:16:21.370Z,24.14
2023-04-20T11:17:21.416Z,24.28
2023-04-20T11:18:21.376Z,24.42
2023-04-20T11:19:20.363Z,24.62
2023-04-20T11:20:21.366Z,24.81
2023-04-20T11:21:20.357Z,24.93
2023-04-20T11:22:21.308Z,25.21
2023-04-20T11:23:21.299Z,25.45
2023-04-20T11:24:21.285Z,25.71
2023-04-20T11:25:21.315Z,25.91
2023-04-20T11:26:21.469Z,26.07
2023-04-20T11:27:20.487Z,26.13
2023-04-20T11:28:21.401Z,26.22
2023-04-20T11:29:21.312Z,26.19
2023-04-20T11:30:21.340Z,26.46
2023-04-20T11:31:21.462Z,26.48
2023-04-20T11:32:21.687Z,26.51
2023-04-20T11:33:21.626Z,26.54
2023-04-20T11:34:21.522Z,26.64
2023-04-20T11:35:20.568Z,26.57
2023-04-20T11:36:21.644Z,26.58
2023-04-20T11:37:20.645Z,26.57
2023-04-20T11:38:22.111Z,26.57
2023-04-20T11:39:21.758Z,26.51
2023-04-20T11:40:21.783Z,26.52
2023-04-20T11:41:21.893Z,26.50
2023-04-20T11:42:21.956Z,26.44
2023-04-20T11:43:22.113Z,26.40
2023-04-20T11:44:21.000Z,26.39
2023-04-20T11:45:22.030Z,26.39
2023-04-20T11:46:22.152Z,26.40
2023-04-20T11:47:22.178Z,26.36
2023-04-20T11:48:22.180Z,26.33
2023-04-20T11:49:22.232Z,26.33
2023-04-20T11:50:22.275Z,26.32
2023-04-20T11:51:22.336Z,26.24
2023-04-20T11:52:22.364Z,26.23
2023-04-20T11:53:22.395Z,26.20
2023-04-20T11:54:22.428Z,26.27
2023-04-20T11:55:21.483Z,26.26
2023-04-20T11:56:22.541Z,26.30
2023-04-20T11:57:22.647Z,26.37
2023-04-20T11:58:22.676Z,26.39
2023-04-20T11:59:22.715Z,26.43
2023-04-20T12:00:22.754Z,26.44
2023-04-20T12:01:22.802Z,26.41
2023-04-20T12:02:23.019Z,26.43
2023-04-20T12:03:22.151Z,26.48
2023-04-20T12:04:22.221Z,26.46
2023-04-20T12:05:23.049Z,26.50
2023-04-20T12:06:22.044Z,26.50
2023-04-20T12:07:23.080Z,26.57
2023-04-20T12:08:23.107Z,26.55
2023-04-20T12:09:22.111Z,26.51
2023-04-20T12:10:23.195Z,26.48
2023-04-20T12:11:23.207Z,26.48
2023-04-20T12:12:23.233Z,26.51
2023-04-20T12:13:22.298Z,26.50
2023-04-20T12:14:23.352Z,26.47
2023-04-20T12:15:22.350Z,26.44
2023-04-20T12:16:23.526Z,26.44
2023-04-20T12:17:22.520Z,26.50
2023-04-20T12:18:23.566Z,26.47
2023-04-20T12:19:23.573Z,26.47
2023-04-20T12:20:23.593Z,26.48
2023-04-20T12:21:23.624Z,26.47
2023-04-20T12:22:22.691Z,26.47
2023-04-20T12:23:23.724Z,26.44
2023-04-20T12:24:23.843Z,26.43
2023-04-20T12:25:23.819Z,26.47
2023-04-20T12:26:34.605Z,26.43
2023-04-20T12:27:23.859Z,26.46
2023-04-20T12:28:23.854Z,26.47
2023-04-20T12:29:23.860Z,26.47
2023-04-20T12:30:22.898Z,26.48
2023-04-20T12:31:24.441Z,26.55
2023-04-20T12:32:22.878Z,26.55
2023-04-20T12:33:23.810Z,26.57
2023-04-20T12:34:23.793Z,26.64
2023-04-20T12:35:23.800Z,26.73
2023-04-20T12:36:22.799Z,26.68
2023-04-20T12:37:23.803Z,26.62
2023-04-20T12:38:23.830Z,26.64
2023-04-20T12:39:22.808Z,26.58
2023-04-20T12:40:22.802Z,26.62
2023-04-20T12:41:22.805Z,26.61
2023-04-20T12:42:23.802Z,26.61
2023-04-20T12:43:23.769Z,26.67
2023-04-20T12:44:22.750Z,26.70
2023-04-20T12:45:22.732Z,26.70
2023-04-20T12:46:23.873Z,26.65
2023-04-20T12:47:23.763Z,26.68
2023-04-20T12:48:23.709Z,26.61
2023-04-20T12:49:22.718Z,26.62
2023-04-20T12:50:23.709Z,26.60
2023-04-20T12:51:22.701Z,26.61
2023-04-20T12:52:22.709Z,26.65
2023-04-20T12:53:22.701Z,26.64
2023-04-20T12:54:23.706Z,26.64
2023-04-20T12:55:22.694Z,26.70
2023-04-20T12:56:23.684Z,26.71
2023-04-20T12:57:22.687Z,26.73
2023-04-20T12:58:22.655Z,26.84
2023-04-20T12:59:22.643Z,26.91
2023-04-20T13:00:22.642Z,26.81
2023-04-20T13:01:23.734Z,26.73
2023-04-20T13:02:23.951Z,26.73
2023-04-20T13:03:23.781Z,26.68
2023-04-20T13:04:24.109Z,26.68
2023-04-20T13:05:22.704Z,26.65
2023-04-20T13:06:22.778Z,26.65
2023-04-20T13:07:22.789Z,26.67
2023-04-20T13:08:22.852Z,26.64
2023-04-20T13:09:23.930Z,26.65
2023-04-20T13:10:22.964Z,26.70
2023-04-20T13:11:25.435Z,26.70
2023-04-20T13:12:23.015Z,26.78
2023-04-20T13:13:24.014Z,26.81
2023-04-20T13:14:23.981Z,26.82
2023-04-20T13:15:37.827Z,26.85
2023-04-20T13:16:24.004Z,26.91
2023-04-20T13:17:23.017Z,26.91
2023-04-20T13:18:24.005Z,26.87
2023-04-20T13:19:22.947Z,26.95
2023-04-20T13:20:23.950Z,26.97
2023-04-20T13:21:22.961Z,26.92
2023-04-20T13:22:23.919Z,26.87
2023-04-20T13:23:22.915Z,26.79
2023-04-20T13:24:23.897Z,26.78
2023-04-20T13:25:23.900Z,26.78
2023-04-20T13:26:22.881Z,26.75
2023-04-20T13:27:23.893Z,26.75
2023-04-20T13:28:23.872Z,26.65
2023-04-20T13:29:23.867Z,26.67
2023-04-20T13:30:24.589Z,26.65
2023-04-20T13:31:23.902Z,26.62
2023-04-20T13:32:23.885Z,26.60
2023-04-20T13:33:22.849Z,26.58
2023-04-20T13:34:22.976Z,26.58
2023-04-20T13:35:23.844Z,26.57
2023-04-20T13:36:23.831Z,26.54
2023-04-20T13:37:23.824Z,26.55
2023-04-20T13:38:23.840Z,26.54
2023-04-20T13:39:22.823Z,26.55
2023-04-20T13:40:23.803Z,26.57
2023-04-20T13:41:23.836Z,26.58
2023-04-20T13:42:23.792Z,26.58
2023-04-20T13:43:22.806Z,26.60
2023-04-20T13:44:23.806Z,26.67
2023-04-20T13:45:22.776Z,26.70
2023-04-20T13:46:22.883Z,26.68
2023-04-20T13:47:22.791Z,26.73
2023-04-20T13:48:22.824Z,26.77
2023-04-20T13:49:23.875Z,26.71
2023-04-20T13:50:23.900Z,26.68
2023-04-20T13:51:22.886Z,26.65
2023-04-20T13:52:23.915Z,26.64
2023-04-20T13:53:22.909Z,26.61
2023-04-20T13:54:23.929Z,26.62
2023-04-20T13:55:24.425Z,26.73
2023-04-20T13:56:24.195Z,26.75
2023-04-20T13:57:24.226Z,26.77
2023-04-20T13:58:24.213Z,26.79
2023-04-20T13:59:24.249Z,26.81
2023-04-20T14:00:24.274Z,26.85
2023-04-20T14:01:23.308Z,26.94
2023-04-20T14:02:23.368Z,27.03
2023-04-20T14:03:24.509Z,27.01
2023-04-20T14:04:24.515Z,26.95
2023-04-20T14:05:24.368Z,26.98
2023-04-20T14:06:24.407Z,26.99
2023-04-20T14:07:24.392Z,27.05
2023-04-20T14:08:23.413Z,27.12
2023-04-20T14:09:23.385Z,27.19
2023-04-20T14:10:23.396Z,27.21
2023-04-20T14:11:24.427Z,27.29
2023-04-20T14:12:23.412Z,27.32
2023-04-20T14:13:24.423Z,27.42
2023-04-20T14:14:24.436Z,27.36
2023-04-20T14:15:24.426Z,27.40
2023-04-20T14:16:24.509Z,27.49
2023-04-20T14:17:23.538Z,27.57
2023-04-20T14:18:24.519Z,27.60
2023-04-20T14:19:23.580Z,27.64
2023-04-20T14:20:24.636Z,27.56
2023-04-20T14:21:24.672Z,27.46
2023-04-20T14:22:24.691Z,27.33
2023-04-20T14:23:23.691Z,27.32
2023-04-20T14:24:24.179Z,27.46
2023-04-20T14:25:24.735Z,27.46
2023-04-20T14:26:23.781Z,27.46
2023-04-20T14:27:23.781Z,27.64
2023-04-20T14:28:23.832Z,28.16
2023-04-20T14:29:24.819Z,28.12
2023-04-20T14:30:23.843Z,28.43
2023-04-20T14:31:24.893Z,28.77
2023-04-20T14:32:23.918Z,28.91
2023-04-20T14:33:24.893Z,29.08
2023-04-20T14:34:24.973Z,29.31
2023-04-20T14:35:24.988Z,29.52
2023-04-20T14:36:23.997Z,29.83
2023-04-20T14:37:24.011Z,29.80
2023-04-20T14:38:24.069Z,30.06
2023-04-20T14:39:25.046Z,30.11
2023-04-20T14:40:24.098Z,30.27
2023-04-20T14:41:24.131Z,30.49
2023-04-20T14:42:24.184Z,30.78
2023-04-20T14:43:25.195Z,31.04
2023-04-20T14:44:25.251Z,31.14
2023-04-20T14:45:25.217Z,31.42
2023-04-20T14:46:25.416Z,31.74
2023-04-20T14:47:25.292Z,31.78
2023-04-20T14:48:24.308Z,31.81
2023-04-20T14:49:25.348Z,31.82
2023-04-20T14:50:24.399Z,32.06
2023-04-20T14:51:25.446Z,32.24
2023-04-20T14:52:25.491Z,32.05
2023-04-20T14:53:24.515Z,32.06
2023-04-20T14:54:24.624Z,31.84
2023-04-20T14:55:24.598Z,31.41
2023-04-20T14:56:25.621Z,30.97
2023-04-20T14:57:24.629Z,30.93
2023-04-20T14:58:24.683Z,30.78
2023-04-20T14:59:25.728Z,30.75
2023-04-20T15:00:24.777Z,30.85
2023-04-20T15:01:25.817Z,30.81
2023-04-20T15:02:25.069Z,30.63
2023-04-20T15:03:25.055Z,30.38
2023-04-20T15:04:25.325Z,30.30
2023-04-20T15:05:25.051Z,30.08
2023-04-20T15:06:26.002Z,30.17
2023-04-20T15:07:26.057Z,30.18
2023-04-20T15:08:26.109Z,30.11
2023-04-20T15:09:25.138Z,30.08
2023-04-20T15:10:26.183Z,30.20
2023-04-20T15:11:25.198Z,30.16
2023-04-20T15:12:26.253Z,30.16
2023-04-20T15:13:26.244Z,29.91
2023-04-20T15:14:26.254Z,29.56
2023-04-20T15:15:29.699Z,29.32
2023-04-20T15:16:26.292Z,29.22
2023-04-20T15:17:26.321Z,29.26
2023-04-20T15:18:26.221Z,29.46
2023-04-20T15:19:26.229Z,29.58
2023-04-20T15:20:26.215Z,29.72
2023-04-20T15:21:25.209Z,29.93
2023-04-20T15:22:26.226Z,29.79
2023-04-20T15:23:26.208Z,29.91
2023-04-20T15:24:26.216Z,29.93
2023-04-20T15:25:26.260Z,29.83
2023-04-20T15:26:25.192Z,29.45
2023-04-20T15:27:25.209Z,29.10
2023-04-20T15:28:25.172Z,28.93
2023-04-20T15:29:25.193Z,28.78
